sensor_id;sensor_type;location;lat;lon;timestamp;temperature;humidity
66831;DHT22;53739;44.224;22.528;2023-04-03T00:01:28;307.30;2304.00
66831;DHT22;53739;44.224;22.528;2023-04-03T00:03:55;307.30;2304.00
66831;DHT22;53739;44.224;22.528;2023-04-03T00:06:22;307.20;2304.00
66831;DHT22;53739;44.224;22.528;2023-04-03T00:08:48;307.20;2304.00
66831;DHT22;53739;44.224;22.528;2023-04-03T00:11:14;282.50;2278.40
66831;DHT22;53739;44.224;22.528;2023-04-03T00:13:40;282.50;2278.40
66831;DHT22;53739;44.224;22.528;2023-04-03T00:16:08;282.40;2278.40
66831;DHT22;53739;44.224;22.528;2023-04-03T00:18:34;282.40;2278.40
66831;DHT22;53739;44.224;22.528;2023-04-03T00:21:00;282.30;2278.40
66831;DHT22;53739;44.224;22.528;2023-04-03T00:23:26;282.30;2278.40
66831;DHT22;53739;44.224;22.528;2023-04-03T00:25:54;282.30;2278.40
66831;DHT22;53739;44.224;22.528;2023-04-03T00:28:20;282.20;2278.40
66831;DHT22;53739;44.224;22.528;2023-04-03T00:30:46;282.20;2278.40
66831;DHT22;53739;44.224;22.528;2023-04-03T00:33:12;282.10;2278.40
66831;DHT22;53739;44.224;22.528;2023-04-03T00:35:39;282.10;2278.40
66831;DHT22;53739;44.224;22.528;2023-04-03T00:38:04;282.10;2278.40
66831;DHT22;53739;44.224;22.528;2023-04-03T00:40:35;282.10;2278.40
66831;DHT22;53739;44.224;22.528;2023-04-03T00:43:01;282.10;2278.40
66831;DHT22;53739;44.224;22.528;2023-04-03T00:45:34;282.00;2278.40
66831;DHT22;53739;44.224;22.528;2023-04-03T00:48:01;282.00;2278.40
66831;DHT22;53739;44.224;22.528;2023-04-03T00:50:31;282.00;2278.40
66831;DHT22;53739;44.224;22.528;2023-04-03T00:52:58;282.00;2278.40
66831;DHT22;53739;44.224;22.528;2023-04-03T00:55:24;282.00;2278.40
66831;DHT22;53739;44.224;22.528;2023-04-03T00:57:51;282.00;2278.40
66831;DHT22;53739;44.224;22.528;2023-04-03T01:00:20;282.00;2278.40
66831;DHT22;53739;44.224;22.528;2023-04-03T01:02:48;282.10;2278.40
66831;DHT22;53739;44.224;22.528;2023-04-03T01:05:16;282.00;2278.40
66831;DHT22;53739;44.224;22.528;2023-04-03T01:07:43;282.10;2278.40
66831;DHT22;53739;44.224;22.528;2023-04-03T01:10:11;282.00;2278.40
66831;DHT22;53739;44.224;22.528;2023-04-03T01:12:42;282.10;2278.40
66831;DHT22;53739;44.224;22.528;2023-04-03T01:15:23;282.10;2278.40
66831;DHT22;53739;44.224;22.528;2023-04-03T01:17:54;282.00;2278.40
66831;DHT22;53739;44.224;22.528;2023-04-03T01:25:22;282.10;2278.40
66831;DHT22;53739;44.224;22.528;2023-04-03T01:27:47;282.10;2278.40
66831;DHT22;53739;44.224;22.528;2023-04-03T01:30:14;282.20;2278.40
66831;DHT22;53739;44.224;22.528;2023-04-03T01:32:42;282.20;2278.40
66831;DHT22;53739;44.224;22.528;2023-04-03T01:35:09;282.20;2278.40
66831;DHT22;53739;44.224;22.528;2023-04-03T01:37:35;282.20;2278.40
66831;DHT22;53739;44.224;22.528;2023-04-03T01:40:02;282.20;2278.40
66831;DHT22;53739;44.224;22.528;2023-04-03T01:42:28;282.20;2278.40
66831;DHT22;53739;44.224;22.528;2023-04-03T01:44:54;282.20;2278.40
66831;DHT22;53739;44.224;22.528;2023-04-03T01:47:21;282.20;2278.40
66831;DHT22;53739;44.224;22.528;2023-04-03T01:49:46;282.20;2278.40
66831;DHT22;53739;44.224;22.528;2023-04-03T01:52:12;282.20;2278.40
66831;DHT22;53739;44.224;22.528;2023-04-03T01:54:38;282.30;2278.40
66831;DHT22;53739;44.224;22.528;2023-04-03T01:57:04;282.30;2278.40
66831;DHT22;53739;44.224;22.528;2023-04-03T01:59:30;282.20;2278.40
66831;DHT22;53739;44.224;22.528;2023-04-03T02:01:55;282.20;2278.40
66831;DHT22;53739;44.224;22.528;2023-04-03T02:04:22;282.20;2278.40
66831;DHT22;53739;44.224;22.528;2023-04-03T02:06:48;282.20;2278.40
66831;DHT22;53739;44.224;22.528;2023-04-03T02:09:14;282.20;2278.40
66831;DHT22;53739;44.224;22.528;2023-04-03T02:11:39;282.20;2278.40
66831;DHT22;53739;44.224;22.528;2023-04-03T02:14:05;282.20;2278.40
66831;DHT22;53739;44.224;22.528;2023-04-03T02:16:31;282.20;2278.40
66831;DHT22;53739;44.224;22.528;2023-04-03T02:18:57;282.20;2278.40
66831;DHT22;53739;44.224;22.528;2023-04-03T02:21:23;282.20;2278.40
66831;DHT22;53739;44.224;22.528;2023-04-03T02:23:49;282.10;2278.40
66831;DHT22;53739;44.224;22.528;2023-04-03T02:26:16;282.10;2278.40
66831;DHT22;53739;44.224;22.528;2023-04-03T02:28:42;282.00;2278.40
66831;DHT22;53739;44.224;22.528;2023-04-03T02:31:09;282.00;2278.40
66831;DHT22;53739;44.224;22.528;2023-04-03T02:33:35;281.90;2278.40
66831;DHT22;53739;44.224;22.528;2023-04-03T02:36:03;281.90;2278.40
66831;DHT22;53739;44.224;22.528;2023-04-03T02:38:29;281.90;2278.40
66831;DHT22;53739;44.224;22.528;2023-04-03T02:41:11;281.90;2278.40
66831;DHT22;53739;44.224;22.528;2023-04-03T02:43:37;281.90;2278.40
66831;DHT22;53739;44.224;22.528;2023-04-03T02:46:03;281.90;2278.40
66831;DHT22;53739;44.224;22.528;2023-04-03T02:48:29;281.90;2278.40
66831;DHT22;53739;44.224;22.528;2023-04-03T02:50:55;281.90;2278.40
66831;DHT22;53739;44.224;22.528;2023-04-03T02:53:21;281.90;2278.40
66831;DHT22;53739;44.224;22.528;2023-04-03T02:55:47;281.90;2278.40
66831;DHT22;53739;44.224;22.528;2023-04-03T02:58:13;281.80;2278.40
66831;DHT22;53739;44.224;22.528;2023-04-03T03:00:38;281.80;2278.40
66831;DHT22;53739;44.224;22.528;2023-04-03T03:03:04;281.80;2278.40
66831;DHT22;53739;44.224;22.528;2023-04-03T03:05:30;281.80;2278.40
66831;DHT22;53739;44.224;22.528;2023-04-03T03:07:56;281.70;2278.40
66831;DHT22;53739;44.224;22.528;2023-04-03T03:10:22;281.70;2278.40
66831;DHT22;53739;44.224;22.528;2023-04-03T03:12:48;281.70;2278.40
66831;DHT22;53739;44.224;22.528;2023-04-03T03:15:14;281.70;2278.40
66831;DHT22;53739;44.224;22.528;2023-04-03T03:17:41;281.70;2278.40
66831;DHT22;53739;44.224;22.528;2023-04-03T03:20:07;281.70;2278.40
66831;DHT22;53739;44.224;22.528;2023-04-03T03:22:34;281.70;2278.40
66831;DHT22;53739;44.224;22.528;2023-04-03T03:25:01;281.70;2278.40
66831;DHT22;53739;44.224;22.528;2023-04-03T03:27:28;281.80;2278.40
66831;DHT22;53739;44.224;22.528;2023-04-03T03:29:53;281.80;2278.40
66831;DHT22;53739;44.224;22.528;2023-04-03T03:32:19;281.80;2278.40
66831;DHT22;53739;44.224;22.528;2023-04-03T03:34:45;281.80;2278.40
66831;DHT22;53739;44.224;22.528;2023-04-03T03:37:10;281.80;2278.40
66831;DHT22;53739;44.224;22.528;2023-04-03T03:39:36;281.90;2278.40
66831;DHT22;53739;44.224;22.528;2023-04-03T03:42:02;281.90;2278.40
66831;DHT22;53739;44.224;22.528;2023-04-03T03:44:28;281.90;2278.40
66831;DHT22;53739;44.224;22.528;2023-04-03T03:46:55;281.90;2278.40
66831;DHT22;53739;44.224;22.528;2023-04-03T03:49:20;281.90;2278.40
66831;DHT22;53739;44.224;22.528;2023-04-03T03:51:46;281.80;2278.40
66831;DHT22;53739;44.224;22.528;2023-04-03T03:54:12;281.80;2278.40
66831;DHT22;53739;44.224;22.528;2023-04-03T03:56:38;281.60;2278.40
66831;DHT22;53739;44.224;22.528;2023-04-03T03:59:04;281.60;2278.40
66831;DHT22;53739;44.224;22.528;2023-04-03T04:01:29;256.90;2252.80
66831;DHT22;53739;44.224;22.528;2023-04-03T04:03:56;281.60;2278.40
66831;DHT22;53739;44.224;22.528;2023-04-03T04:06:22;256.90;2252.80
66831;DHT22;53739;44.224;22.528;2023-04-03T04:08:47;281.60;2278.40
66831;DHT22;53739;44.224;22.528;2023-04-03T04:11:13;281.60;2278.40
66831;DHT22;53739;44.224;22.528;2023-04-03T04:13:39;281.60;2278.40
66831;DHT22;53739;44.224;22.528;2023-04-03T04:16:06;281.70;2278.40
66831;DHT22;53739;44.224;22.528;2023-04-03T04:18:32;281.70;2278.40
66831;DHT22;53739;44.224;22.528;2023-04-03T04:20:58;281.70;2278.40
66831;DHT22;53739;44.224;22.528;2023-04-03T04:23:24;281.70;2278.40
66831;DHT22;53739;44.224;22.528;2023-04-03T04:25:51;281.80;2278.40
66831;DHT22;53739;44.224;22.528;2023-04-03T04:28:17;281.80;2278.40
66831;DHT22;53739;44.224;22.528;2023-04-03T04:30:43;281.80;2278.40
66831;DHT22;53739;44.224;22.528;2023-04-03T04:33:10;281.90;2278.40
66831;DHT22;53739;44.224;22.528;2023-04-03T04:35:36;281.90;2278.40
66831;DHT22;53739;44.224;22.528;2023-04-03T04:38:01;281.90;2278.40
66831;DHT22;53739;44.224;22.528;2023-04-03T04:40:28;281.90;2278.40
66831;DHT22;53739;44.224;22.528;2023-04-03T04:42:53;282.00;2278.40
66831;DHT22;53739;44.224;22.528;2023-04-03T04:45:20;282.00;2278.40
66831;DHT22;53739;44.224;22.528;2023-04-03T04:47:45;282.00;2278.40
66831;DHT22;53739;44.224;22.528;2023-04-03T04:50:11;282.10;2278.40
66831;DHT22;53739;44.224;22.528;2023-04-03T04:52:38;282.10;2278.40
66831;DHT22;53739;44.224;22.528;2023-04-03T04:55:04;282.20;2278.40
66831;DHT22;53739;44.224;22.528;2023-04-03T04:57:30;282.20;2278.40
66831;DHT22;53739;44.224;22.528;2023-04-03T04:59:56;282.20;2278.40
66831;DHT22;53739;44.224;22.528;2023-04-03T05:02:22;282.30;2278.40
66831;DHT22;53739;44.224;22.528;2023-04-03T05:04:47;282.30;2278.40
66831;DHT22;53739;44.224;22.528;2023-04-03T05:07:15;282.40;2278.40
66831;DHT22;53739;44.224;22.528;2023-04-03T05:09:41;282.40;2278.40
66831;DHT22;53739;44.224;22.528;2023-04-03T05:12:08;282.50;2278.40
66831;DHT22;53739;44.224;22.528;2023-04-03T05:14:33;282.50;2278.40
66831;DHT22;53739;44.224;22.528;2023-04-03T05:16:59;307.20;2304.00
66831;DHT22;53739;44.224;22.528;2023-04-03T05:19:25;307.30;2304.00
66831;DHT22;53739;44.224;22.528;2023-04-03T05:21:50;307.40;2304.00
66831;DHT22;53739;44.224;22.528;2023-04-03T05:24:16;307.50;2304.00
66831;DHT22;53739;44.224;22.528;2023-04-03T05:26:43;307.50;2304.00
66831;DHT22;53739;44.224;22.528;2023-04-03T05:29:09;307.60;2304.00
66831;DHT22;53739;44.224;22.528;2023-04-03T05:31:35;307.70;2304.00
66831;DHT22;53739;44.224;22.528;2023-04-03T05:34:01;307.70;2304.00
66831;DHT22;53739;44.224;22.528;2023-04-03T05:36:27;307.80;2304.00
66831;DHT22;53739;44.224;22.528;2023-04-03T05:38:53;307.90;2304.00
66831;DHT22;53739;44.224;22.528;2023-04-03T05:41:19;307.90;2304.00
66831;DHT22;53739;44.224;22.528;2023-04-03T05:43:46;308.00;2304.00
66831;DHT22;53739;44.224;22.528;2023-04-03T05:46:17;332.80;2329.60
66831;DHT22;53739;44.224;22.528;2023-04-03T05:48:43;332.90;2329.60
66831;DHT22;53739;44.224;22.528;2023-04-03T05:51:22;333.00;2329.60
66831;DHT22;53739;44.224;22.528;2023-04-03T05:53:52;333.20;2329.60
66831;DHT22;53739;44.224;22.528;2023-04-03T05:56:20;333.40;2329.60
66831;DHT22;53739;44.224;22.528;2023-04-03T05:58:46;333.60;2329.60
66831;DHT22;53739;44.224;22.528;2023-04-03T06:01:12;333.70;2329.60
66831;DHT22;53739;44.224;22.528;2023-04-03T06:03:38;358.50;2329.60
66831;DHT22;53739;44.224;22.528;2023-04-03T06:06:05;358.60;2329.60
66831;DHT22;53739;44.224;22.528;2023-04-03T06:08:31;358.70;2329.60
66831;DHT22;53739;44.224;22.528;2023-04-03T06:10:57;358.90;2329.60
66831;DHT22;53739;44.224;22.528;2023-04-03T06:13:22;359.00;2329.60
66831;DHT22;53739;44.224;22.528;2023-04-03T06:15:49;359.20;2329.60
66831;DHT22;53739;44.224;22.528;2023-04-03T06:18:15;384.00;2329.60
66831;DHT22;53739;44.224;22.528;2023-04-03T06:23:06;384.40;2329.60
66831;DHT22;53739;44.224;22.528;2023-04-03T06:25:32;384.40;2329.60
66831;DHT22;53739;44.224;22.528;2023-04-03T06:27:59;384.70;2329.60
66831;DHT22;53739;44.224;22.528;2023-04-03T06:30:24;384.90;384.00
66831;DHT22;53739;44.224;22.528;2023-04-03T06:32:51;409.80;128.00
66831;DHT22;53739;44.224;22.528;2023-04-03T06:35:17;410.00;128.00
66831;DHT22;53739;44.224;22.528;2023-04-03T06:37:43;410.30;128.00
66831;DHT22;53739;44.224;22.528;2023-04-03T06:40:15;410.40;128.00
66831;DHT22;53739;44.224;22.528;2023-04-03T06:42:44;435.50;128.00
66831;DHT22;53739;44.224;22.528;2023-04-03T06:45:10;435.80;128.00
66831;DHT22;53739;44.224;22.528;2023-04-03T06:50:03;436.10;128.00
66831;DHT22;53739;44.224;22.528;2023-04-03T06:52:29;436.00;128.00
66831;DHT22;53739;44.224;22.528;2023-04-03T06:54:54;435.90;128.00
66831;DHT22;53739;44.224;22.528;2023-04-03T06:57:23;436.10;128.00
66831;DHT22;53739;44.224;22.528;2023-04-03T06:59:49;461.20;128.00
66831;DHT22;53739;44.224;22.528;2023-04-03T07:02:15;461.10;128.00
66831;DHT22;53739;44.224;22.528;2023-04-03T07:04:41;461.20;128.00
66831;DHT22;53739;44.224;22.528;2023-04-03T07:07:07;461.20;128.00
66831;DHT22;53739;44.224;22.528;2023-04-03T07:09:33;461.10;128.00
66831;DHT22;53739;44.224;22.528;2023-04-03T07:11:58;461.20;128.00
66831;DHT22;53739;44.224;22.528;2023-04-03T07:14:24;461.40;128.00
66831;DHT22;53739;44.224;22.528;2023-04-03T07:16:50;461.40;128.00
66831;DHT22;53739;44.224;22.528;2023-04-03T07:19:16;461.20;128.00
66831;DHT22;53739;44.224;22.528;2023-04-03T07:21:43;461.20;128.00
66831;DHT22;53739;44.224;22.528;2023-04-03T07:24:10;461.00;128.00
66831;DHT22;53739;44.224;22.528;2023-04-03T07:26:36;460.80;128.00
66831;DHT22;53739;44.224;22.528;2023-04-03T07:29:02;460.80;460.80
66831;DHT22;53739;44.224;22.528;2023-04-03T07:31:28;436.10;128.00
66831;DHT22;53739;44.224;22.528;2023-04-03T07:33:53;435.90;128.00
66831;DHT22;53739;44.224;22.528;2023-04-03T07:36:21;435.80;128.00
66831;DHT22;53739;44.224;22.528;2023-04-03T07:38:47;435.60;409.60
66831;DHT22;53739;44.224;22.528;2023-04-03T07:41:18;435.60;128.00
66831;DHT22;53739;44.224;22.528;2023-04-03T07:43:45;435.60;128.00
66831;DHT22;53739;44.224;22.528;2023-04-03T07:46:12;435.90;128.00
66831;DHT22;53739;44.224;22.528;2023-04-03T07:48:38;461.10;128.00
66831;DHT22;53739;44.224;22.528;2023-04-03T07:51:05;461.20;128.00
66831;DHT22;53739;44.224;22.528;2023-04-03T07:53:31;461.20;128.00
66831;DHT22;53739;44.224;22.528;2023-04-03T07:55:58;461.40;537.60
66831;DHT22;53739;44.224;22.528;2023-04-03T07:58:24;461.20;128.00
66831;DHT22;53739;44.224;22.528;2023-04-03T08:00:51;461.10;128.00
66831;DHT22;53739;44.224;22.528;2023-04-03T08:03:16;461.20;128.00
66831;DHT22;53739;44.224;22.528;2023-04-03T08:05:48;461.70;128.00
66831;DHT22;53739;44.224;22.528;2023-04-03T08:22:54;486.70;128.00
66831;DHT22;53739;44.224;22.528;2023-04-03T08:25:20;486.50;128.00
66831;DHT22;53739;44.224;22.528;2023-04-03T08:27:46;486.70;128.00
66831;DHT22;53739;44.224;22.528;2023-04-03T08:30:12;486.60;128.00
66831;DHT22;53739;44.224;22.528;2023-04-03T08:32:38;486.40;588.80
66831;DHT22;53739;44.224;22.528;2023-04-03T08:35:04;487.10;128.00
66831;DHT22;53739;44.224;22.528;2023-04-03T08:37:30;487.30;128.00
66831;DHT22;53739;44.224;22.528;2023-04-03T08:39:57;512.10;128.00
66831;DHT22;53739;44.224;22.528;2023-04-03T08:42:59;487.10;128.00
66831;DHT22;53739;44.224;22.528;2023-04-03T08:45:50;486.90;128.00
66831;DHT22;53739;44.224;22.528;2023-04-03T08:48:33;487.10;128.00
66831;DHT22;53739;44.224;22.528;2023-04-03T08:51:04;487.10;128.00
66831;DHT22;53739;44.224;22.528;2023-04-03T08:53:34;486.50;128.00
66831;DHT22;53739;44.224;22.528;2023-04-03T08:56:08;461.70;128.00
66831;DHT22;53739;44.224;22.528;2023-04-03T08:58:51;486.60;128.00
66831;DHT22;53739;44.224;22.528;2023-04-03T09:01:36;486.80;128.00
66831;DHT22;53739;44.224;22.528;2023-04-03T09:04:09;486.50;128.00
66831;DHT22;53739;44.224;22.528;2023-04-03T09:06:36;486.50;128.00
66831;DHT22;53739;44.224;22.528;2023-04-03T09:09:29;486.70;128.00
66831;DHT22;53739;44.224;22.528;2023-04-03T09:12:32;486.60;128.00
66831;DHT22;53739;44.224;22.528;2023-04-03T09:15:30;486.40;128.00
66831;DHT22;53739;44.224;22.528;2023-04-03T09:18:23;486.40;128.00
66831;DHT22;53739;44.224;22.528;2023-04-03T09:21:01;486.80;128.00
66831;DHT22;53739;44.224;22.528;2023-04-03T09:26:09;487.10;128.00
66831;DHT22;53739;44.224;22.528;2023-04-03T09:28:39;487.10;128.00
66831;DHT22;53739;44.224;22.528;2023-04-03T09:31:25;486.80;128.00
66831;DHT22;53739;44.224;22.528;2023-04-03T09:34:16;461.70;128.00
66831;DHT22;53739;44.224;22.528;2023-04-03T09:36:55;486.50;128.00
66831;DHT22;53739;44.224;22.528;2023-04-03T09:39:26;486.80;128.00
66831;DHT22;53739;44.224;22.528;2023-04-03T09:42:01;487.30;128.00
66831;DHT22;53739;44.224;22.528;2023-04-03T09:44:35;487.30;128.00
66831;DHT22;53739;44.224;22.528;2023-04-03T09:47:23;487.00;128.00
66831;DHT22;53739;44.224;22.528;2023-04-03T09:49:50;486.80;128.00
66831;DHT22;53739;44.224;22.528;2023-04-03T09:52:22;486.80;128.00
66831;DHT22;53739;44.224;22.528;2023-04-03T09:54:49;486.70;128.00
66831;DHT22;53739;44.224;22.528;2023-04-03T09:57:15;486.50;128.00
66831;DHT22;53739;44.224;22.528;2023-04-03T09:59:57;486.40;128.00
66831;DHT22;53739;44.224;22.528;2023-04-03T10:02:35;486.60;128.00
66831;DHT22;53739;44.224;22.528;2023-04-03T10:05:02;486.50;128.00
66831;DHT22;53739;44.224;22.528;2023-04-03T10:09:57;461.60;128.00
66831;DHT22;53739;44.224;22.528;2023-04-03T10:12:24;461.50;128.00
66831;DHT22;53739;44.224;22.528;2023-04-03T10:17:30;461.20;128.00
66831;DHT22;53739;44.224;22.528;2023-04-03T10:20:23;461.00;128.00
66831;DHT22;53739;44.224;22.528;2023-04-03T10:26:17;435.90;153.60
66831;DHT22;53739;44.224;22.528;2023-04-03T10:34:31;435.80;128.00
66831;DHT22;53739;44.224;22.528;2023-04-03T10:39:51;436.00;128.00
66831;DHT22;53739;44.224;22.528;2023-04-03T11:01:46;460.80;128.00
66831;DHT22;53739;44.224;22.528;2023-04-03T11:04:15;460.80;128.00
66831;DHT22;53739;44.224;22.528;2023-04-03T11:06:46;460.80;128.00
66831;DHT22;53739;44.224;22.528;2023-04-03T11:09:28;436.10;128.00
66831;DHT22;53739;44.224;22.528;2023-04-03T11:12:02;436.00;128.00
66831;DHT22;53739;44.224;22.528;2023-04-03T11:14:34;435.90;2355.20
66831;DHT22;53739;44.224;22.528;2023-04-03T11:22:40;435.90;2355.20
66831;DHT22;53739;44.224;22.528;2023-04-03T11:28:03;435.70;2355.20
66831;DHT22;53739;44.224;22.528;2023-04-03T11:39:00;409.80;2355.20
66831;DHT22;53739;44.224;22.528;2023-04-03T11:41:31;409.60;2355.20
66831;DHT22;53739;44.224;22.528;2023-04-03T11:44:00;384.90;2329.60
66831;DHT22;53739;44.224;22.528;2023-04-03T11:46:48;384.90;2329.60
66831;DHT22;53739;44.224;22.528;2023-04-03T11:52:57;384.90;2329.60
66831;DHT22;53739;44.224;22.528;2023-04-03T12:00:46;384.90;2329.60
66831;DHT22;53739;44.224;22.528;2023-04-03T12:14:20;409.70;2355.20
66831;DHT22;53739;44.224;22.528;2023-04-03T12:40:09;384.60;2329.60
66831;DHT22;53739;44.224;22.528;2023-04-03T12:48:30;384.40;2329.60
66831;DHT22;53739;44.224;22.528;2023-04-03T12:50:57;384.30;2329.60
66831;DHT22;53739;44.224;22.528;2023-04-03T12:53:33;384.40;2329.60
66831;DHT22;53739;44.224;22.528;2023-04-03T12:56:28;384.20;2329.60
66831;DHT22;53739;44.224;22.528;2023-04-03T12:58:56;384.20;2329.60
66831;DHT22;53739;44.224;22.528;2023-04-03T13:01:37;384.20;2329.60
66831;DHT22;53739;44.224;22.528;2023-04-03T13:06:55;384.30;2329.60
66831;DHT22;53739;44.224;22.528;2023-04-03T13:09:26;384.30;2329.60
66831;DHT22;53739;44.224;22.528;2023-04-03T13:12:02;384.20;2329.60
66831;DHT22;53739;44.224;22.528;2023-04-03T13:14:29;384.20;2329.60
66831;DHT22;53739;44.224;22.528;2023-04-03T13:17:04;384.20;2329.60
66831;DHT22;53739;44.224;22.528;2023-04-03T13:19:30;384.20;2329.60
66831;DHT22;53739;44.224;22.528;2023-04-03T13:24:49;384.40;2329.60
66831;DHT22;53739;44.224;22.528;2023-04-03T13:27:16;384.30;2329.60
66831;DHT22;53739;44.224;22.528;2023-04-03T13:29:42;384.40;2329.60
66831;DHT22;53739;44.224;22.528;2023-04-03T13:32:21;384.70;2329.60
66831;DHT22;53739;44.224;22.528;2023-04-03T13:34:48;384.60;2329.60
66831;DHT22;53739;44.224;22.528;2023-04-03T13:37:30;384.50;2329.60
66831;DHT22;53739;44.224;22.528;2023-04-03T13:40:16;384.40;2329.60
66831;DHT22;53739;44.224;22.528;2023-04-03T13:42:42;384.40;2329.60
66831;DHT22;53739;44.224;22.528;2023-04-03T13:45:22;384.40;2329.60
66831;DHT22;53739;44.224;22.528;2023-04-03T13:47:50;384.20;2329.60
66831;DHT22;53739;44.224;22.528;2023-04-03T13:50:24;384.30;2124.80
66831;DHT22;53739;44.224;22.528;2023-04-03T13:55:30;359.20;2329.60
66831;DHT22;53739;44.224;22.528;2023-04-03T13:57:57;359.20;2329.60
66831;DHT22;53739;44.224;22.528;2023-04-03T14:00:47;359.20;2329.60
66831;DHT22;53739;44.224;22.528;2023-04-03T14:05:48;358.90;2329.60
66831;DHT22;53739;44.224;22.528;2023-04-03T14:08:14;358.70;2329.60
66831;DHT22;53739;44.224;22.528;2023-04-03T14:10:40;358.80;2329.60
66831;DHT22;53739;44.224;22.528;2023-04-03T14:13:06;358.60;2329.60
66831;DHT22;53739;44.224;22.528;2023-04-03T14:15:32;358.50;2329.60
66831;DHT22;53739;44.224;22.528;2023-04-03T14:17:58;358.50;2329.60
66831;DHT22;53739;44.224;22.528;2023-04-03T14:20:26;333.70;2329.60
66831;DHT22;53739;44.224;22.528;2023-04-03T14:22:52;333.70;2329.60
66831;DHT22;53739;44.224;22.528;2023-04-03T14:25:20;333.70;2329.60
66831;DHT22;53739;44.224;22.528;2023-04-03T14:27:49;333.70;2329.60
66831;DHT22;53739;44.224;22.528;2023-04-03T14:32:47;333.60;2329.60
66831;DHT22;53739;44.224;22.528;2023-04-03T14:35:14;333.60;2329.60
66831;DHT22;53739;44.224;22.528;2023-04-03T14:37:40;333.40;2329.60
66831;DHT22;53739;44.224;22.528;2023-04-03T14:40:07;333.30;2329.60
66831;DHT22;53739;44.224;22.528;2023-04-03T14:42:36;333.40;2329.60
66831;DHT22;53739;44.224;22.528;2023-04-03T14:45:05;333.40;2329.60
66831;DHT22;53739;44.224;22.528;2023-04-03T14:47:32;333.30;2329.60
66831;DHT22;53739;44.224;22.528;2023-04-03T14:50:00;333.40;2329.60
66831;DHT22;53739;44.224;22.528;2023-04-03T14:52:29;333.30;2329.60
66831;DHT22;53739;44.224;22.528;2023-04-03T14:54:56;333.30;2329.60
66831;DHT22;53739;44.224;22.528;2023-04-03T14:57:25;333.10;2329.60
66831;DHT22;53739;44.224;22.528;2023-04-03T14:59:51;333.20;2329.60
66831;DHT22;53739;44.224;22.528;2023-04-03T15:02:25;333.10;2329.60
66831;DHT22;53739;44.224;22.528;2023-04-03T15:04:51;333.00;2329.60
66831;DHT22;53739;44.224;22.528;2023-04-03T15:07:17;333.00;2329.60
66831;DHT22;53739;44.224;22.528;2023-04-03T15:09:46;333.10;2329.60
66831;DHT22;53739;44.224;22.528;2023-04-03T15:12:12;333.10;2329.60
66831;DHT22;53739;44.224;22.528;2023-04-03T15:14:38;333.00;2329.60
66831;DHT22;53739;44.224;22.528;2023-04-03T15:17:16;333.00;2329.60
66831;DHT22;53739;44.224;22.528;2023-04-03T15:19:46;333.10;2329.60
66831;DHT22;53739;44.224;22.528;2023-04-03T15:22:17;333.00;2329.60
66831;DHT22;53739;44.224;22.528;2023-04-03T15:24:44;333.00;2329.60
66831;DHT22;53739;44.224;22.528;2023-04-03T15:27:11;333.00;2329.60
66831;DHT22;53739;44.224;22.528;2023-04-03T15:29:40;332.90;2329.60
66831;DHT22;53739;44.224;22.528;2023-04-03T15:32:07;333.00;2329.60
66831;DHT22;53739;44.224;22.528;2023-04-03T15:34:34;333.00;2329.60
66831;DHT22;53739;44.224;22.528;2023-04-03T15:37:01;333.00;2329.60
66831;DHT22;53739;44.224;22.528;2023-04-03T15:39:27;332.90;2329.60
66831;DHT22;53739;44.224;22.528;2023-04-03T15:41:53;332.80;2329.60
66831;DHT22;53739;44.224;22.528;2023-04-03T15:44:20;308.00;2304.00
66831;DHT22;53739;44.224;22.528;2023-04-03T15:46:47;307.90;2304.00
66831;DHT22;53739;44.224;22.528;2023-04-03T15:49:14;307.80;2304.00
66831;DHT22;53739;44.224;22.528;2023-04-03T15:51:40;307.70;2304.00
66831;DHT22;53739;44.224;22.528;2023-04-03T15:54:06;307.70;2304.00
66831;DHT22;53739;44.224;22.528;2023-04-03T15:56:32;307.60;2304.00
66831;DHT22;53739;44.224;22.528;2023-04-03T15:58:58;307.60;2304.00
66831;DHT22;53739;44.224;22.528;2023-04-03T16:01:23;307.60;2304.00
66831;DHT22;53739;44.224;22.528;2023-04-03T16:03:49;307.50;2304.00
66831;DHT22;53739;44.224;22.528;2023-04-03T16:06:17;307.50;2304.00
66831;DHT22;53739;44.224;22.528;2023-04-03T16:08:44;307.60;2304.00
66831;DHT22;53739;44.224;22.528;2023-04-03T16:11:10;307.60;2304.00
66831;DHT22;53739;44.224;22.528;2023-04-03T16:13:36;307.70;2304.00
66831;DHT22;53739;44.224;22.528;2023-04-03T16:16:02;307.70;2304.00
66831;DHT22;53739;44.224;22.528;2023-04-03T16:18:29;307.50;2304.00
66831;DHT22;53739;44.224;22.528;2023-04-03T16:20:55;307.30;2304.00
66831;DHT22;53739;44.224;22.528;2023-04-03T16:23:21;282.50;2278.40
66831;DHT22;53739;44.224;22.528;2023-04-03T16:25:48;307.20;2304.00
66831;DHT22;53739;44.224;22.528;2023-04-03T16:28:16;307.30;2304.00
66831;DHT22;53739;44.224;22.528;2023-04-03T16:30:44;282.50;2278.40
66831;DHT22;53739;44.224;22.528;2023-04-03T16:33:13;282.50;2278.40
66831;DHT22;53739;44.224;22.528;2023-04-03T17:04:57;282.40;2278.40
66831;DHT22;53739;44.224;22.528;2023-04-03T17:07:24;282.10;2278.40
66831;DHT22;53739;44.224;22.528;2023-04-03T17:09:51;282.00;2278.40
66831;DHT22;53739;44.224;22.528;2023-04-03T19:41:30;307.60;2304.00
66831;DHT22;53739;44.224;22.528;2023-04-03T19:43:56;307.50;2304.00
66831;DHT22;53739;44.224;22.528;2023-04-03T19:46:24;307.50;2304.00
66831;DHT22;53739;44.224;22.528;2023-04-03T19:48:50;307.50;2304.00
66831;DHT22;53739;44.224;22.528;2023-04-03T19:51:16;307.60;2304.00
66831;DHT22;53739;44.224;22.528;2023-04-03T19:53:42;307.60;2304.00
66831;DHT22;53739;44.224;22.528;2023-04-03T19:56:08;307.50;2304.00
66831;DHT22;53739;44.224;22.528;2023-04-03T19:58:34;307.40;2304.00
66831;DHT22;53739;44.224;22.528;2023-04-03T20:01:00;307.30;2304.00
66831;DHT22;53739;44.224;22.528;2023-04-03T20:08:19;307.60;2304.00
66831;DHT22;53739;44.224;22.528;2023-04-03T20:10:45;307.60;2304.00
66831;DHT22;53739;44.224;22.528;2023-04-03T20:13:11;307.50;2304.00